sensor_id;sensor_type;location;lat;lon;timestamp;P1;durP1;ratioP1;P2;durP2;ratioP2
45382;SDS011;42455;51.660;5.824;2022-11-10T00:02:41;8.5;;;3.0;;
45382;SDS011;42455;51.660;5.824;2022-11-10T00:07:47;10.0;;;3.0;;
45382;SDS011;42455;51.660;5.824;2022-11-10T00:12:53;9.0;;;2.0;;
45382;SDS011;42455;51.660;5.824;2022-11-10T00:18:00;6.5;;;3.0;;
45382;SDS011;42455;51.660;5.824;2022-11-10T00:23:06;8.0;;;3.0;;
45382;SDS011;42455;51.660;5.824;2022-11-10T00:28:12;9.0;;;3.0;;
45382;SDS011;42455;51.660;5.824;2022-11-10T00:33:18;8.0;;;2.0;;
45382;SDS011;42455;51.660;5.824;2022-11-10T00:38:25;10.0;;;3.0;;
45382;SDS011;42455;51.660;5.824;2022-11-10T00:43:31;6.0;;;2.0;;
45382;SDS011;42455;51.660;5.824;2022-11-10T00:48:37;9.0;;;3.0;;
45382;SDS011;42455;51.660;5.824;2022-11-10T00:53:43;7.0;;;3.0;;
45382;SDS011;42455;51.660;5.824;2022-11-10T00:58:49;8.0;;;3.0;;
45382;SDS011;42455;51.660;5.824;2022-11-10T01:03:56;8.0;;;3.0;;
45382;SDS011;42455;51.660;5.824;2022-11-10T01:09:02;7.0;;;3.0;;
45382;SDS011;42455;51.660;5.824;2022-11-10T01:14:08;10.0;;;3.0;;
45382;SDS011;42455;51.660;5.824;2022-11-10T01:19:14;7.0;;;3.0;;
45382;SDS011;42455;51.660;5.824;2022-11-10T01:24:20;8.0;;;3.0;;
45382;SDS011;42455;51.660;5.824;2022-11-10T01:29:26;11.0;;;3.0;;
45382;SDS011;42455;51.660;5.824;2022-11-10T01:34:31;7.0;;;3.0;;
45382;SDS011;42455;51.660;5.824;2022-11-10T01:39:37;9.0;;;3.0;;
45382;SDS011;42455;51.660;5.824;2022-11-10T01:45:13;7.0;;;3.0;;
45382;SDS011;42455;51.660;5.824;2022-11-10T01:49:47;8.0;;;3.0;;
45382;SDS011;42455;51.660;5.824;2022-11-10T01:54:54;8.0;;;3.0;;
45382;SDS011;42455;51.660;5.824;2022-11-10T02:00:00;8.0;;;3.0;;
45382;SDS011;42455;51.660;5.824;2022-11-10T02:05:06;10.0;;;3.0;;
45382;SDS011;42455;51.660;5.824;2022-11-10T02:10:13;8.0;;;3.0;;
45382;SDS011;42455;51.660;5.824;2022-11-10T02:15:19;9.0;;;3.0;;
45382;SDS011;42455;51.660;5.824;2022-11-10T02:20:25;12.0;;;3.0;;
45382;SDS011;42455;51.660;5.824;2022-11-10T02:25:31;11.0;;;3.0;;
45382;SDS011;42455;51.660;5.824;2022-11-10T02:30:37;7.0;;;3.0;;
45382;SDS011;42455;51.660;5.824;2022-11-10T02:35:44;8.5;;;3.0;;
45382;SDS011;42455;51.660;5.824;2022-11-10T02:40:50;7.5;;;3.0;;
45382;SDS011;42455;51.660;5.824;2022-11-10T02:45:56;8.0;;;3.0;;
45382;SDS011;42455;51.660;5.824;2022-11-10T02:51:02;10.0;;;3.0;;
45382;SDS011;42455;51.660;5.824;2022-11-10T02:56:08;10.0;;;3.0;;
45382;SDS011;42455;51.660;5.824;2022-11-10T03:01:14;8.0;;;3.0;;
45382;SDS011;42455;51.660;5.824;2022-11-10T03:06:21;7.0;;;3.0;;
45382;SDS011;42455;51.660;5.824;2022-11-10T03:11:27;10.0;;;3.0;;
45382;SDS011;42455;51.660;5.824;2022-11-10T03:16:33;9.0;;;3.0;;
45382;SDS011;42455;51.660;5.824;2022-11-10T03:21:39;10.0;;;3.0;;
45382;SDS011;42455;51.660;5.824;2022-11-10T03:26:46;10.0;;;3.0;;
45382;SDS011;42455;51.660;5.824;2022-11-10T03:31:52;7.0;;;3.0;;
45382;SDS011;42455;51.660;5.824;2022-11-10T03:36:57;8.0;;;3.0;;
45382;SDS011;42455;51.660;5.824;2022-11-10T03:42:03;8.0;;;3.0;;
45382;SDS011;42455;51.660;5.824;2022-11-10T03:47:08;8.0;;;3.0;;
45382;SDS011;42455;51.660;5.824;2022-11-10T03:52:15;7.0;;;3.0;;
45382;SDS011;42455;51.660;5.824;2022-11-10T03:57:21;8.0;;;3.0;;
45382;SDS011;42455;51.660;5.824;2022-11-10T04:02:27;9.0;;;3.0;;
45382;SDS011;42455;51.660;5.824;2022-11-10T04:07:33;9.0;;;3.0;;
45382;SDS011;42455;51.660;5.824;2022-11-10T04:12:39;10.0;;;3.0;;
45382;SDS011;42455;51.660;5.824;2022-11-10T04:17:47;7.0;;;3.0;;
45382;SDS011;42455;51.660;5.824;2022-11-10T04:22:52;7.0;;;3.0;;
45382;SDS011;42455;51.660;5.824;2022-11-10T04:27:58;8.0;;;3.0;;
45382;SDS011;42455;51.660;5.824;2022-11-10T04:33:04;8.0;;;3.0;;
45382;SDS011;42455;51.660;5.824;2022-11-10T04:38:10;9.0;;;3.0;;
45382;SDS011;42455;51.660;5.824;2022-11-10T04:43:17;9.0;;;3.0;;
45382;SDS011;42455;51.660;5.824;2022-11-10T04:48:23;7.0;;;3.0;;
45382;SDS011;42455;51.660;5.824;2022-11-10T04:53:29;9.5;;;3.0;;
45382;SDS011;42455;51.660;5.824;2022-11-10T04:58:35;8.0;;;3.0;;
45382;SDS011;42455;51.660;5.824;2022-11-10T05:03:42;9.0;;;3.0;;
45382;SDS011;42455;51.660;5.824;2022-11-10T05:08:48;7.0;;;3.0;;
45382;SDS011;42455;51.660;5.824;2022-11-10T05:13:54;8.0;;;3.0;;
45382;SDS011;42455;51.660;5.824;2022-11-10T05:19:00;8.0;;;3.0;;
45382;SDS011;42455;51.660;5.824;2022-11-10T05:24:06;11.0;;;3.0;;
45382;SDS011;42455;51.660;5.824;2022-11-10T05:29:12;10.0;;;3.0;;
45382;SDS011;42455;51.660;5.824;2022-11-10T05:34:18;10.0;;;3.0;;
45382;SDS011;42455;51.660;5.824;2022-11-10T05:39:24;10.0;;;3.0;;
45382;SDS011;42455;51.660;5.824;2022-11-10T05:44:30;9.0;;;3.0;;
45382;SDS011;42455;51.660;5.824;2022-11-10T05:49:36;9.0;;;3.0;;
45382;SDS011;42455;51.660;5.824;2022-11-10T05:54:43;11.0;;;3.0;;
45382;SDS011;42455;51.660;5.824;2022-11-10T05:59:49;10.0;;;3.0;;
45382;SDS011;42455;51.660;5.824;2022-11-10T06:04:55;11.0;;;4.0;;
45382;SDS011;42455;51.660;5.824;2022-11-10T06:10:01;10.5;;;3.0;;
45382;SDS011;42455;51.660;5.824;2022-11-10T06:15:07;9.5;;;3.0;;
45382;SDS011;42455;51.660;5.824;2022-11-10T06:20:14;10.0;;;3.0;;
45382;SDS011;42455;51.660;5.824;2022-11-10T06:25:20;9.5;;;3.0;;
45382;SDS011;42455;51.660;5.824;2022-11-10T06:30:27;10.0;;;4.0;;
45382;SDS011;42455;51.660;5.824;2022-11-10T06:35:32;11.0;;;4.0;;
45382;SDS011;42455;51.660;5.824;2022-11-10T06:40:38;12.0;;;4.0;;
45382;SDS011;42455;51.660;5.824;2022-11-10T06:45:45;11.0;;;4.0;;
45382;SDS011;42455;51.660;5.824;2022-11-10T06:50:51;11.0;;;3.0;;
45382;SDS011;42455;51.660;5.824;2022-11-10T06:55:57;10.0;;;4.0;;
45382;SDS011;42455;51.660;5.824;2022-11-10T07:01:03;8.5;;;3.0;;
45382;SDS011;42455;51.660;5.824;2022-11-10T07:06:09;11.0;;;3.0;;
45382;SDS011;42455;51.660;5.824;2022-11-10T07:11:16;11.0;;;4.0;;
45382;SDS011;42455;51.660;5.824;2022-11-10T07:16:21;11.0;;;4.0;;
45382;SDS011;42455;51.660;5.824;2022-11-10T07:21:26;12.0;;;4.0;;
45382;SDS011;42455;51.660;5.824;2022-11-10T07:26:32;10.0;;;3.0;;
45382;SDS011;42455;51.660;5.824;2022-11-10T07:31:39;9.0;;;3.0;;
45382;SDS011;42455;51.660;5.824;2022-11-10T07:36:45;11.0;;;4.0;;
45382;SDS011;42455;51.660;5.824;2022-11-10T07:41:51;12.0;;;4.0;;
45382;SDS011;42455;51.660;5.824;2022-11-10T07:46:57;8.0;;;3.0;;
45382;SDS011;42455;51.660;5.824;2022-11-10T07:52:03;10.0;;;4.0;;
45382;SDS011;42455;51.660;5.824;2022-11-10T07:57:10;10.0;;;4.0;;
45382;SDS011;42455;51.660;5.824;2022-11-10T08:02:16;9.0;;;3.0;;
45382;SDS011;42455;51.660;5.824;2022-11-10T08:07:22;10.0;;;3.0;;
45382;SDS011;42455;51.660;5.824;2022-11-10T08:12:28;10.5;;;4.0;;
45382;SDS011;42455;51.660;5.824;2022-11-10T08:17:34;9.0;;;3.0;;
45382;SDS011;42455;51.660;5.824;2022-11-10T08:22:41;10.0;;;4.0;;
45382;SDS011;42455;51.660;5.824;2022-11-10T08:27:47;11.0;;;4.0;;
45382;SDS011;42455;51.660;5.824;2022-11-10T08:32:53;11.0;;;4.0;;
45382;SDS011;42455;51.660;5.824;2022-11-10T08:37:59;11.5;;;3.0;;
45382;SDS011;42455;51.660;5.824;2022-11-10T08:43:06;10.0;;;3.0;;
45382;SDS011;42455;51.660;5.824;2022-11-10T08:48:13;11.0;;;3.0;;
45382;SDS011;42455;51.660;5.824;2022-11-10T08:53:20;13.0;;;4.0;;
45382;SDS011;42455;51.660;5.824;2022-11-10T08:58:24;13.0;;;4.0;;
45382;SDS011;42455;51.660;5.824;2022-11-10T09:03:30;12.0;;;4.0;;
45382;SDS011;42455;51.660;5.824;2022-11-10T09:08:36;12.0;;;4.0;;
45382;SDS011;42455;51.660;5.824;2022-11-10T09:13:42;10.5;;;4.0;;
45382;SDS011;42455;51.660;5.824;2022-11-10T09:18:47;11.0;;;4.0;;
45382;SDS011;42455;51.660;5.824;2022-11-10T09:23:53;9.0;;;4.0;;
45382;SDS011;42455;51.660;5.824;2022-11-10T09:28:59;9.0;;;4.0;;
45382;SDS011;42455;51.660;5.824;2022-11-10T09:34:06;10.0;;;4.0;;
45382;SDS011;42455;51.660;5.824;2022-11-10T09:39:12;11.0;;;4.0;;
45382;SDS011;42455;51.660;5.824;2022-11-10T09:44:20;10.0;;;5.0;;
45382;SDS011;42455;51.660;5.824;2022-11-10T09:49:39;14.0;;;4.0;;
45382;SDS011;42455;51.660;5.824;2022-11-10T09:54:32;11.0;;;4.0;;
45382;SDS011;42455;51.660;5.824;2022-11-10T09:59:37;10.0;;;4.0;;
45382;SDS011;42455;51.660;5.824;2022-11-10T10:04:57;11.0;;;4.0;;
45382;SDS011;42455;51.660;5.824;2022-11-10T10:10:10;9.0;;;4.0;;
45382;SDS011;42455;51.660;5.824;2022-11-10T10:15:41;11.5;;;4.0;;
45382;SDS011;42455;51.660;5.824;2022-11-10T10:20:12;10.0;;;3.0;;
45382;SDS011;42455;51.660;5.824;2022-11-10T10:25:12;11.0;;;4.0;;
45382;SDS011;42455;51.660;5.824;2022-11-10T10:30:15;10.0;;;3.0;;
45382;SDS011;42455;51.660;5.824;2022-11-10T10:35:20;11.0;;;3.0;;
45382;SDS011;42455;51.660;5.824;2022-11-10T10:40:26;10.0;;;3.0;;
45382;SDS011;42455;51.660;5.824;2022-11-10T10:45:33;11.0;;;3.0;;
45382;SDS011;42455;51.660;5.824;2022-11-10T10:50:40;9.0;;;3.0;;
45382;SDS011;42455;51.660;5.824;2022-11-10T10:55:50;9.0;;;3.0;;
45382;SDS011;42455;51.660;5.824;2022-11-10T11:00:51;10.0;;;3.0;;
45382;SDS011;42455;51.660;5.824;2022-11-10T11:05:58;9.0;;;3.0;;
45382;SDS011;42455;51.660;5.824;2022-11-10T11:11:06;8.0;;;3.0;;
45382;SDS011;42455;51.660;5.824;2022-11-10T11:16:08;9.0;;;3.0;;
45382;SDS011;42455;51.660;5.824;2022-11-10T11:21:20;6.0;;;2.0;;
45382;SDS011;42455;51.660;5.824;2022-11-10T11:26:21;9.5;;;3.0;;
45382;SDS011;42455;51.660;5.824;2022-11-10T11:31:42;8.0;;;2.0;;
45382;SDS011;42455;51.660;5.824;2022-11-10T11:36:47;8.5;;;2.0;;
45382;SDS011;42455;51.660;5.824;2022-11-10T11:41:53;6.0;;;2.0;;
45382;SDS011;42455;51.660;5.824;2022-11-10T11:47:35;6.5;;;2.0;;
45382;SDS011;42455;51.660;5.824;2022-11-10T11:52:51;6.0;;;2.0;;
45382;SDS011;42455;51.660;5.824;2022-11-10T11:56:57;6.0;;;2.0;;
45382;SDS011;42455;51.660;5.824;2022-11-10T12:02:31;7.5;;;2.0;;
45382;SDS011;42455;51.660;5.824;2022-11-10T12:08:38;6.0;;;2.0;;
45382;SDS011;42455;51.660;5.824;2022-11-10T12:13:36;6.0;;;2.0;;
45382;SDS011;42455;51.660;5.824;2022-11-10T12:18:29;7.0;;;2.0;;
45382;SDS011;42455;51.660;5.824;2022-11-10T12:22:59;5.0;;;2.0;;
45382;SDS011;42455;51.660;5.824;2022-11-10T12:27:42;6.0;;;2.0;;
45382;SDS011;42455;51.660;5.824;2022-11-10T12:32:39;7.0;;;2.0;;
45382;SDS011;42455;51.660;5.824;2022-11-10T12:37:47;6.0;;;2.0;;
45382;SDS011;42455;51.660;5.824;2022-11-10T12:42:53;7.0;;;2.0;;
45382;SDS011;42455;51.660;5.824;2022-11-10T12:47:58;5.0;;;2.0;;
45382;SDS011;42455;51.660;5.824;2022-11-10T12:53:04;8.0;;;2.0;;
45382;SDS011;42455;51.660;5.824;2022-11-10T12:58:10;6.0;;;2.0;;
45382;SDS011;42455;51.660;5.824;2022-11-10T13:03:23;6.5;;;2.0;;
45382;SDS011;42455;51.660;5.824;2022-11-10T13:08:25;6.0;;;2.0;;
45382;SDS011;42455;51.660;5.824;2022-11-10T13:13:29;9.0;;;2.0;;
45382;SDS011;42455;51.660;5.824;2022-11-10T13:18:52;6.0;;;1.0;;
45382;SDS011;42455;51.660;5.824;2022-11-10T13:29:25;5.0;;;1.0;;
45382;SDS011;42455;51.660;5.824;2022-11-10T13:34:11;5.0;;;1.0;;
45382;SDS011;42455;51.660;5.824;2022-11-10T13:44:22;6.0;;;1.0;;
45382;SDS011;42455;51.660;5.824;2022-11-10T13:50:05;5.0;;;1.0;;
45382;SDS011;42455;51.660;5.824;2022-11-10T13:54:59;5.0;;;1.0;;
45382;SDS011;42455;51.660;5.824;2022-11-10T13:59:24;4.0;;;1.0;;
45382;SDS011;42455;51.660;5.824;2022-11-10T14:04:37;4.0;;;1.0;;
45382;SDS011;42455;51.660;5.824;2022-11-10T14:09:35;3.0;;;1.0;;
45382;SDS011;42455;51.660;5.824;2022-11-10T14:14:48;3.0;;;1.0;;
45382;SDS011;42455;51.660;5.824;2022-11-10T14:19:48;4.0;;;1.0;;
45382;SDS011;42455;51.660;5.824;2022-11-10T14:25:16;4.5;;;1.0;;
45382;SDS011;42455;51.660;5.824;2022-11-10T14:30:20;3.0;;;1.0;;
45382;SDS011;42455;51.660;5.824;2022-11-10T14:35:15;5.5;;;1.0;;
45382;SDS011;42455;51.660;5.824;2022-11-10T14:40:17;4.0;;;1.0;;
45382;SDS011;42455;51.660;5.824;2022-11-10T14:45:19;3.0;;;1.0;;
45382;SDS011;42455;51.660;5.824;2022-11-10T14:50:25;5.0;;;1.0;;
45382;SDS011;42455;51.660;5.824;2022-11-10T14:55:33;4.0;;;1.0;;
45382;SDS011;42455;51.660;5.824;2022-11-10T15:00:38;3.0;;;1.0;;
45382;SDS011;42455;51.660;5.824;2022-11-10T15:05:43;4.0;;;1.0;;
45382;SDS011;42455;51.660;5.824;2022-11-10T15:10:50;4.0;;;1.0;;
45382;SDS011;42455;51.660;5.824;2022-11-10T15:16:27;4.0;;;1.0;;
45382;SDS011;42455;51.660;5.824;2022-11-10T15:21:05;4.0;;;1.0;;
45382;SDS011;42455;51.660;5.824;2022-11-10T15:26:14;3.0;;;1.0;;
45382;SDS011;42455;51.660;5.824;2022-11-10T15:31:26;5.0;;;1.0;;
45382;SDS011;42455;51.660;5.824;2022-11-10T15:36:32;3.0;;;1.0;;
45382;SDS011;42455;51.660;5.824;2022-11-10T15:41:25;4.5;;;1.0;;
45382;SDS011;42455;51.660;5.824;2022-11-10T15:46:31;7.5;;;1.0;;
45382;SDS011;42455;51.660;5.824;2022-11-10T15:51:37;4.0;;;1.0;;
45382;SDS011;42455;51.660;5.824;2022-11-10T15:56:44;4.0;;;1.0;;
45382;SDS011;42455;51.660;5.824;2022-11-10T16:01:50;3.0;;;1.0;;
45382;SDS011;42455;51.660;5.824;2022-11-10T16:06:56;3.0;;;1.0;;
45382;SDS011;42455;51.660;5.824;2022-11-10T16:12:02;4.0;;;1.0;;
45382;SDS011;42455;51.660;5.824;2022-11-10T16:17:10;4.0;;;1.0;;
45382;SDS011;42455;51.660;5.824;2022-11-10T16:22:15;5.0;;;1.5;;
45382;SDS011;42455;51.660;5.824;2022-11-10T16:27:21;4.0;;;1.0;;
45382;SDS011;42455;51.660;5.824;2022-11-10T16:32:27;4.0;;;1.0;;
45382;SDS011;42455;51.660;5.824;2022-11-10T16:37:33;7.0;;;1.0;;
45382;SDS011;42455;51.660;5.824;2022-11-10T16:42:40;6.0;;;2.0;;
45382;SDS011;42455;51.660;5.824;2022-11-10T16:47:51;6.0;;;2.0;;
45382;SDS011;42455;51.660;5.824;2022-11-10T16:52:52;5.0;;;2.0;;
45382;SDS011;42455;51.660;5.824;2022-11-10T16:57:58;5.0;;;2.0;;
45382;SDS011;42455;51.660;5.824;2022-11-10T17:03:08;5.0;;;2.0;;
45382;SDS011;42455;51.660;5.824;2022-11-10T17:08:15;5.0;;;2.0;;
45382;SDS011;42455;51.660;5.824;2022-11-10T17:13:17;6.0;;;2.0;;
45382;SDS011;42455;51.660;5.824;2022-11-10T17:18:23;6.0;;;2.0;;
45382;SDS011;42455;51.660;5.824;2022-11-10T17:23:28;5.0;;;2.0;;
45382;SDS011;42455;51.660;5.824;2022-11-10T17:28:34;7.0;;;2.0;;
45382;SDS011;42455;51.660;5.824;2022-11-10T17:33:40;6.0;;;2.0;;
45382;SDS011;42455;51.660;5.824;2022-11-10T17:38:46;4.0;;;2.0;;
45382;SDS011;42455;51.660;5.824;2022-11-10T17:43:52;5.0;;;2.0;;
45382;SDS011;42455;51.660;5.824;2022-11-10T17:48:58;5.0;;;2.0;;
45382;SDS011;42455;51.660;5.824;2022-11-10T17:54:09;6.0;;;2.0;;
45382;SDS011;42455;51.660;5.824;2022-11-10T17:59:11;4.5;;;2.0;;
45382;SDS011;42455;51.660;5.824;2022-11-10T18:04:17;6.0;;;2.0;;
45382;SDS011;42455;51.660;5.824;2022-11-10T18:09:23;6.0;;;2.0;;
45382;SDS011;42455;51.660;5.824;2022-11-10T18:14:29;6.0;;;2.0;;
45382;SDS011;42455;51.660;5.824;2022-11-10T18:19:36;4.0;;;2.0;;
45382;SDS011;42455;51.660;5.824;2022-11-10T18:24:42;6.0;;;3.0;;
45382;SDS011;42455;51.660;5.824;2022-11-10T18:29:48;5.5;;;2.5;;
45382;SDS011;42455;51.660;5.824;2022-11-10T18:34:54;5.0;;;2.0;;
45382;SDS011;42455;51.660;5.824;2022-11-10T18:40:00;5.0;;;3.0;;
45382;SDS011;42455;51.660;5.824;2022-11-10T18:45:07;5.0;;;2.0;;
45382;SDS011;42455;51.660;5.824;2022-11-10T18:50:13;6.0;;;3.0;;
45382;SDS011;42455;51.660;5.824;2022-11-10T18:55:19;8.0;;;4.0;;
45382;SDS011;42455;51.660;5.824;2022-11-10T19:00:25;6.0;;;4.0;;
45382;SDS011;42455;51.660;5.824;2022-11-10T19:05:31;6.0;;;3.0;;
45382;SDS011;42455;51.660;5.824;2022-11-10T19:10:40;5.0;;;3.0;;
45382;SDS011;42455;51.660;5.824;2022-11-10T19:15:44;6.0;;;3.0;;
45382;SDS011;42455;51.660;5.824;2022-11-10T19:20:49;7.5;;;5.0;;
45382;SDS011;42455;51.660;5.824;2022-11-10T19:25:57;6.0;;;4.0;;
45382;SDS011;42455;51.660;5.824;2022-11-10T19:31:02;7.0;;;4.0;;
45382;SDS011;42455;51.660;5.824;2022-11-10T19:36:10;6.0;;;4.0;;
45382;SDS011;42455;51.660;5.824;2022-11-10T19:41:14;7.0;;;5.0;;
45382;SDS011;42455;51.660;5.824;2022-11-10T19:46:20;5.0;;;4.0;;
45382;SDS011;42455;51.660;5.824;2022-11-10T19:51:25;7.0;;;4.0;;
45382;SDS011;42455;51.660;5.824;2022-11-10T19:56:32;8.0;;;5.0;;
45382;SDS011;42455;51.660;5.824;2022-11-10T20:01:38;9.0;;;5.0;;
45382;SDS011;42455;51.660;5.824;2022-11-10T20:06:44;7.0;;;5.0;;
45382;SDS011;42455;51.660;5.824;2022-11-10T20:11:50;8.0;;;5.0;;
45382;SDS011;42455;51.660;5.824;2022-11-10T20:16:56;7.0;;;5.0;;
45382;SDS011;42455;51.660;5.824;2022-11-10T20:22:03;8.0;;;5.0;;
45382;SDS011;42455;51.660;5.824;2022-11-10T20:27:09;8.0;;;5.0;;
45382;SDS011;42455;51.660;5.824;2022-11-10T20:32:15;9.0;;;6.0;;
45382;SDS011;42455;51.660;5.824;2022-11-10T20:37:21;6.0;;;5.0;;
45382;SDS011;42455;51.660;5.824;2022-11-10T20:42:27;8.0;;;5.0;;
45382;SDS011;42455;51.660;5.824;2022-11-10T20:47:34;8.0;;;6.0;;
45382;SDS011;42455;51.660;5.824;2022-11-10T20:52:40;7.0;;;5.0;;
45382;SDS011;42455;51.660;5.824;2022-11-10T20:57:46;8.0;;;5.0;;
45382;SDS011;42455;51.660;5.824;2022-11-10T21:02:52;8.0;;;6.0;;
45382;SDS011;42455;51.660;5.824;2022-11-10T21:07:58;8.0;;;6.0;;
45382;SDS011;42455;51.660;5.824;2022-11-10T21:13:05;9.0;;;5.0;;
45382;SDS011;42455;51.660;5.824;2022-11-10T21:18:11;7.0;;;5.0;;
45382;SDS011;42455;51.660;5.824;2022-11-10T21:23:16;7.0;;;5.0;;
45382;SDS011;42455;51.660;5.824;2022-11-10T21:28:23;8.0;;;5.0;;
45382;SDS011;42455;51.660;5.824;2022-11-10T21:33:28;8.0;;;5.0;;
45382;SDS011;42455;51.660;5.824;2022-11-10T21:38:34;8.0;;;5.0;;
45382;SDS011;42455;51.660;5.824;2022-11-10T21:43:40;9.0;;;7.0;;
45382;SDS011;42455;51.660;5.824;2022-11-10T21:48:46;7.0;;;5.0;;
45382;SDS011;42455;51.660;5.824;2022-11-10T21:53:52;8.0;;;6.0;;
45382;SDS011;42455;51.660;5.824;2022-11-10T21:58:59;8.0;;;6.0;;
45382;SDS011;42455;51.660;5.824;2022-11-10T22:04:05;8.0;;;6.0;;
45382;SDS011;42455;51.660;5.824;2022-11-10T22:09:11;8.5;;;6.0;;
45382;SDS011;42455;51.660;5.824;2022-11-10T22:14:17;7.5;;;5.0;;
45382;SDS011;42455;51.660;5.824;2022-11-10T22:19:23;7.0;;;5.0;;
45382;SDS011;42455;51.660;5.824;2022-11-10T22:24:30;7.0;;;5.0;;
45382;SDS011;42455;51.660;5.824;2022-11-10T22:29:36;9.0;;;6.0;;
45382;SDS011;42455;51.660;5.824;2022-11-10T22:34:42;7.0;;;6.0;;
45382;SDS011;42455;51.660;5.824;2022-11-10T22:39:48;9.0;;;6.0;;
45382;SDS011;42455;51.660;5.824;2022-11-10T22:44:54;7.0;;;5.0;;
45382;SDS011;42455;51.660;5.824;2022-11-10T22:50:01;6.0;;;5.0;;
45382;SDS011;42455;51.660;5.824;2022-11-10T22:55:07;7.0;;;5.0;;
45382;SDS011;42455;51.660;5.824;2022-11-10T23:00:14;7.5;;;5.0;;
45382;SDS011;42455;51.660;5.824;2022-11-10T23:05:19;6.0;;;5.0;;
45382;SDS011;42455;51.660;5.824;2022-11-10T23:10:26;7.0;;;5.0;;
45382;SDS011;42455;51.660;5.824;2022-11-10T23:15:32;6.0;;;5.0;;
45382;SDS011;42455;51.660;5.824;2022-11-10T23:20:37;7.0;;;5.0;;
45382;SDS011;42455;51.660;5.824;2022-11-10T23:25:53;6.0;;;5.0;;
45382;SDS011;42455;51.660;5.824;2022-11-10T23:30:49;6.0;;;5.0;;
45382;SDS011;42455;51.660;5.824;2022-11-10T23:35:56;8.0;;;5.0;;
45382;SDS011;42455;51.660;5.824;2022-11-10T23:41:04;7.5;;;5.0;;
45382;SDS011;42455;51.660;5.824;2022-11-10T23:46:08;7.0;;;5.0;;
45382;SDS011;42455;51.660;5.824;2022-11-10T23:51:14;7.0;;;5.0;;
45382;SDS011;42455;51.660;5.824;2022-11-10T23:56:20;8.0;;;5.0;;
